createdAt,value
2022-11-07T00:00:12.389Z,100422.50
2022-11-07T00:03:16.318Z,100423.44
2022-11-07T00:06:19.211Z,100427.22
2022-11-07T00:09:22.103Z,100423.19
2022-11-07T00:12:24.779Z,100430.75
2022-11-07T00:15:27.562Z,100419.06
2022-11-07T00:18:30.562Z,100427.69
2022-11-07T00:21:33.470Z,100421.41
2022-11-07T00:24:38.286Z,100424.34
2022-11-07T00:27:41.188Z,100429.16
2022-11-07T00:30:43.862Z,100424.81
2022-11-07T00:33:47.275Z,100432.16
2022-11-07T00:36:49.845Z,100437.59
2022-11-07T00:39:52.663Z,100439.75
2022-11-07T00:42:55.205Z,100442.47
2022-11-07T00:46:01.567Z,100438.34
2022-11-07T00:49:04.260Z,100440.87
2022-11-07T00:52:07.078Z,100439.66
2022-11-07T00:55:09.730Z,100430.53
2022-11-07T00:58:14.210Z,100427.91
2022-11-07T01:01:23.082Z,100427.44
2022-11-07T01:04:44.498Z,100423.31
2022-11-07T01:07:47.017Z,100424.91
2022-11-07T01:10:49.955Z,100418.62
2022-11-07T01:13:57.614Z,100421.06
2022-11-07T01:17:00.445Z,100419.56
2022-11-07T01:20:03.202Z,100419.25
2022-11-07T01:23:07.538Z,100420.03
2022-11-07T01:26:12.125Z,100421.34
2022-11-07T01:29:17.059Z,100418.25
2022-11-07T01:32:20.154Z,100412.88
2022-11-07T01:35:23.056Z,100415.59
2022-11-07T01:38:25.995Z,100413.31
2022-11-07T01:41:33.131Z,100426.66
2022-11-07T01:44:38.373Z,100432.19
2022-11-07T01:47:41.384Z,100431.56
2022-11-07T01:50:43.950Z,100439.84
2022-11-07T01:53:47.912Z,100436.06
2022-11-07T01:56:51.468Z,100427.81
2022-11-07T01:59:57.653Z,100441.91
2022-11-07T02:03:05.617Z,100437.03
2022-11-07T02:06:18.112Z,100435.91
2022-11-07T02:09:21.515Z,100438.13
2022-11-07T02:12:26.707Z,100434.03
2022-11-07T02:15:29.705Z,100433.16
2022-11-07T02:18:36.354Z,100437.47
2022-11-07T02:21:55.758Z,100436.47
2022-11-07T02:25:02.467Z,100451.28
2022-11-07T02:28:08.754Z,100438.53
2022-11-07T02:31:11.879Z,100444.53
2022-11-07T02:34:14.976Z,100444.78
2022-11-07T02:37:26.181Z,100443.22
2022-11-07T02:40:30.755Z,100434.94
2022-11-07T02:43:36.646Z,100440.78
2022-11-07T02:46:40.367Z,100440.28
2022-11-07T02:49:43.927Z,100433.25
2022-11-07T02:52:47.341Z,100433.78
2022-11-07T02:55:51.661Z,100429.03
2022-11-07T02:58:58.194Z,100432.63
2022-11-07T03:02:01.696Z,100430.97
2022-11-07T03:05:05.556Z,100427.13
2022-11-07T03:08:08.623Z,100430.91
2022-11-07T03:11:12.163Z,100428.28
2022-11-07T03:14:14.922Z,100431.38
2022-11-07T03:17:17.545Z,100439.72
2022-11-07T03:20:22.445Z,100438.00
2022-11-07T03:23:25.329Z,100424.28
2022-11-07T03:26:28.228Z,100427.19
2022-11-07T03:29:30.749Z,100423.72
2022-11-07T03:32:34.924Z,100419.59
2022-11-07T03:35:37.594Z,100431.66
2022-11-07T03:38:40.420Z,100434.25
2022-11-07T03:41:42.969Z,100433.31
2022-11-07T03:44:45.738Z,100430.84
2022-11-07T03:47:48.650Z,100443.00
2022-11-07T03:50:55.267Z,100440.87
2022-11-07T03:53:57.838Z,100441.69
2022-11-07T03:57:00.698Z,100439.56
2022-11-07T04:00:05.733Z,100437.09
2022-11-07T04:03:14.554Z,100441.97
2022-11-07T04:06:17.759Z,100444.94
2022-11-07T04:09:20.286Z,100438.97
2022-11-07T04:12:42.114Z,100448.72
2022-11-07T04:16:07.233Z,100456.22
2022-11-07T04:19:10.099Z,100453.91
2022-11-07T04:22:12.852Z,100460.37
2022-11-07T04:25:15.721Z,100462.91
2022-11-07T04:28:18.805Z,100466.19
2022-11-07T04:31:22.413Z,100467.00
2022-11-07T04:34:25.094Z,100466.03
2022-11-07T04:37:28.081Z,100463.50
2022-11-07T04:40:31.237Z,100459.94
2022-11-07T04:43:34.187Z,100450.53
2022-11-07T04:46:36.899Z,100449.41
2022-11-07T04:49:40.109Z,100451.63
2022-11-07T04:52:43.087Z,100444.25
2022-11-07T04:55:46.851Z,100442.44
2022-11-07T04:58:50.366Z,100435.59
2022-11-07T05:01:55.091Z,100436.00
2022-11-07T05:04:57.886Z,100429.44
2022-11-07T05:08:00.983Z,100424.56
2022-11-07T05:11:06.008Z,100434.16
2022-11-07T05:14:11.547Z,100440.00
2022-11-07T05:17:17.348Z,100447.31
2022-11-07T05:20:32.438Z,100455.50
2022-11-07T05:23:36.023Z,100451.72
2022-11-07T05:26:39.209Z,100464.81
2022-11-07T05:29:47.837Z,100460.72
2022-11-07T05:32:53.237Z,100477.56
2022-11-07T05:35:56.679Z,100471.63
2022-11-07T05:38:59.720Z,100470.97
2022-11-07T05:42:02.615Z,100478.38
2022-11-07T05:45:06.424Z,100479.00
2022-11-07T05:48:14.781Z,100480.00
2022-11-07T05:51:17.721Z,100486.78
2022-11-07T05:54:20.342Z,100479.66
2022-11-07T05:57:26.025Z,100479.62
2022-11-07T06:00:30.695Z,100477.28
2022-11-07T06:03:34.019Z,100483.94
2022-11-07T06:06:36.631Z,100489.41
2022-11-07T06:09:39.692Z,100502.72
2022-11-07T06:12:44.911Z,100524.53
2022-11-07T06:15:48.032Z,100524.72
2022-11-07T06:18:51.175Z,100529.44
2022-11-07T06:22:03.014Z,100532.88
2022-11-07T06:25:08.724Z,100533.72
2022-11-07T06:28:13.129Z,100533.72
2022-11-07T06:31:18.859Z,100535.16
2022-11-07T06:34:21.842Z,100534.84
2022-11-07T06:37:34.380Z,100541.63
2022-11-07T06:40:38.793Z,100548.72
2022-11-07T06:43:44.549Z,100561.53
2022-11-07T06:46:47.725Z,100566.19
2022-11-07T06:49:51.607Z,100563.78
2022-11-07T06:52:54.677Z,100569.63
2022-11-07T06:56:00.046Z,100572.25
2022-11-07T06:59:03.398Z,100583.91
2022-11-07T07:02:06.174Z,100578.84
2022-11-07T07:05:09.548Z,100590.78
2022-11-07T07:08:13.143Z,100576.56
2022-11-07T07:11:17.159Z,100584.47
2022-11-07T07:14:20.150Z,100583.53
2022-11-07T07:17:23.247Z,100578.75
2022-11-07T07:20:26.131Z,100584.66
2022-11-07T07:23:29.236Z,100584.94
2022-11-07T07:26:32.029Z,100584.09
2022-11-07T07:29:35.318Z,100591.97
2022-11-07T07:32:39.139Z,100588.69
2022-11-07T07:35:42.205Z,100592.00
2022-11-07T07:38:47.475Z,100589.06
2022-11-07T07:41:51.584Z,100600.81
2022-11-07T07:44:55.140Z,100591.62
2022-11-07T07:48:05.428Z,100592.16
2022-11-07T07:51:08.517Z,100593.75
2022-11-07T07:54:12.140Z,100597.22
2022-11-07T07:57:14.937Z,100602.03
2022-11-07T08:00:20.236Z,100594.41
2022-11-07T08:03:50.667Z,100598.78
2022-11-07T08:06:55.436Z,100592.31
2022-11-07T08:10:27.180Z,100587.03
2022-11-07T08:13:25.681Z,100586.13
2022-11-07T08:16:32.234Z,100593.44
2022-11-07T08:19:34.924Z,100594.78
2022-11-07T08:22:38.658Z,100596.44
2022-11-07T08:25:41.852Z,100594.38
2022-11-07T08:28:45.123Z,100596.81
2022-11-07T08:31:50.698Z,100596.16
2022-11-07T08:34:55.671Z,100600.16
2022-11-07T08:38:01.181Z,100599.25
2022-11-07T08:41:08.528Z,100598.31
2022-11-07T08:44:14.504Z,100607.66
2022-11-07T08:47:17.727Z,100604.00
2022-11-07T08:50:20.539Z,100607.50
2022-11-07T08:53:25.129Z,100604.91
2022-11-07T08:56:27.770Z,100607.66
2022-11-07T08:59:30.843Z,100606.06
2022-11-07T09:05:58.584Z,100616.25
2022-11-07T09:09:02.263Z,100615.63
2022-11-07T09:12:07.781Z,100614.06
2022-11-07T09:15:11.360Z,100616.31
2022-11-07T09:18:14.399Z,100620.37
2022-11-07T09:21:22.648Z,100622.63
2022-11-07T09:24:29.279Z,100619.69
2022-11-07T09:27:33.384Z,100622.84
2022-11-07T09:30:37.556Z,100625.81
2022-11-07T09:33:40.301Z,100618.59
2022-11-07T09:36:43.873Z,100628.66
2022-11-07T09:39:46.544Z,100631.78
2022-11-07T09:43:31.249Z,100631.41
2022-11-07T09:47:17.092Z,100627.72
2022-11-07T09:50:42.519Z,100631.19
2022-11-07T09:53:52.659Z,100631.66
2022-11-07T09:56:58.029Z,100619.22
2022-11-07T10:00:03.994Z,100632.41
2022-11-07T10:03:09.663Z,100616.78
2022-11-07T10:06:24.921Z,100621.97
2022-11-07T10:09:45.598Z,100623.66
2022-11-07T10:13:13.983Z,100615.97
2022-11-07T10:16:29.145Z,100607.72
2022-11-07T10:20:24.729Z,100603.41
2022-11-07T10:23:27.680Z,100603.53
2022-11-07T10:26:31.485Z,100602.97
2022-11-07T10:29:56.192Z,100593.13
2022-11-07T10:33:05.207Z,100590.06
2022-11-07T10:36:29.991Z,100598.69
2022-11-07T10:39:34.233Z,100591.16
2022-11-07T10:42:37.188Z,100592.13
2022-11-07T10:45:40.933Z,100588.03
2022-11-07T10:48:57.189Z,100586.63
2022-11-07T10:52:19.841Z,100581.56
2022-11-07T10:55:23.605Z,100578.19
2022-11-07T10:58:30.223Z,100573.69
2022-11-07T11:01:32.947Z,100576.69
2022-11-07T11:04:38.326Z,100579.56
2022-11-07T11:07:41.591Z,100567.38
2022-11-07T11:10:46.714Z,100565.06
2022-11-07T11:14:02.420Z,100563.28
2022-11-07T11:17:05.784Z,100558.34
2022-11-07T11:20:31.377Z,100546.31
2022-11-07T11:23:42.038Z,100554.91
2022-11-07T11:26:46.272Z,100547.50
2022-11-07T11:30:01.423Z,100552.31
2022-11-07T11:33:16.119Z,100545.34
2022-11-07T11:36:24.943Z,100552.50
2022-11-07T11:39:51.579Z,100548.87
2022-11-07T11:43:05.312Z,100550.81
2022-11-07T11:46:32.716Z,100537.09
2022-11-07T11:49:43.329Z,100542.25
2022-11-07T11:52:48.782Z,100542.59
2022-11-07T11:55:58.355Z,100546.72
2022-11-07T11:59:01.000Z,100539.59
2022-11-07T12:02:25.833Z,100544.88
2022-11-07T12:06:03.961Z,100544.59
2022-11-07T12:09:40.871Z,100536.16
2022-11-07T12:12:59.201Z,100528.03
2022-11-07T12:16:26.344Z,100532.44
2022-11-07T12:19:45.686Z,100522.97
2022-11-07T12:22:51.227Z,100530.16
2022-11-07T12:26:03.427Z,100528.59
2022-11-07T12:29:32.586Z,100535.22
2022-11-07T12:33:09.802Z,100529.31
2022-11-07T12:36:34.059Z,100535.72
2022-11-07T12:39:55.819Z,100530.59
2022-11-07T12:43:07.539Z,100532.84
2022-11-07T12:46:45.250Z,100536.53
2022-11-07T12:50:09.825Z,100528.97
2022-11-07T12:53:45.699Z,100536.81
2022-11-07T12:56:51.812Z,100527.09
2022-11-07T13:00:05.197Z,100525.28
2022-11-07T13:03:30.600Z,100532.25
2022-11-07T13:06:46.842Z,100539.34
2022-11-07T13:10:08.312Z,100539.22
2022-11-07T13:13:19.635Z,100537.91
2022-11-07T13:16:30.961Z,100536.38
2022-11-07T13:19:36.751Z,100531.41
2022-11-07T13:22:41.011Z,100535.78
2022-11-07T13:25:44.361Z,100531.13
2022-11-07T13:28:59.263Z,100530.78
2022-11-07T13:32:06.631Z,100536.25
2022-11-07T13:35:23.906Z,100536.03
2022-11-07T13:38:28.530Z,100531.56
2022-11-07T13:41:31.999Z,100532.84
2022-11-07T13:44:38.161Z,100529.22
2022-11-07T13:47:43.113Z,100527.81
2022-11-07T13:51:21.270Z,100525.75
2022-11-07T13:54:43.622Z,100531.56
2022-11-07T13:57:58.571Z,100525.41
2022-11-07T14:01:10.522Z,100525.41
2022-11-07T14:04:15.963Z,100523.97
2022-11-07T14:07:24.835Z,100520.38
2022-11-07T14:10:33.997Z,100519.66
2022-11-07T14:13:41.594Z,100519.25
2022-11-07T14:16:46.576Z,100519.88
2022-11-07T14:19:49.410Z,100518.31
2022-11-07T14:23:06.242Z,100520.59
2022-11-07T14:26:24.289Z,100527.91
2022-11-07T14:29:27.953Z,100520.59
2022-11-07T14:32:32.184Z,100523.81
2022-11-07T14:35:37.380Z,100527.41
2022-11-07T14:38:49.490Z,100527.50
2022-11-07T14:41:54.729Z,100520.12
2022-11-07T14:44:58.472Z,100523.59
2022-11-07T14:48:01.790Z,100525.91
2022-11-07T14:51:05.620Z,100538.72
2022-11-07T14:54:16.947Z,100532.81
2022-11-07T14:57:19.810Z,100539.91
2022-11-07T15:00:23.472Z,100536.97
2022-11-07T15:03:34.742Z,100544.56
2022-11-07T15:06:43.313Z,100542.81
2022-11-07T15:09:46.156Z,100542.00
2022-11-07T15:12:58.997Z,100549.81
2022-11-07T15:16:22.734Z,100542.53
2022-11-07T15:19:25.736Z,100547.81
2022-11-07T15:22:39.065Z,100541.97
2022-11-07T15:25:52.781Z,100543.88
2022-11-07T15:29:12.612Z,100544.56
2022-11-07T15:32:18.707Z,100539.66
2022-11-07T15:38:45.359Z,100546.38
2022-11-07T15:41:47.961Z,100544.47
2022-11-07T15:44:52.183Z,100540.06
2022-11-07T15:47:55.008Z,100544.47
2022-11-07T15:51:00.221Z,100546.81
2022-11-07T15:54:03.010Z,100555.69
2022-11-07T15:57:07.923Z,100546.19
2022-11-07T16:00:20.691Z,100556.94
2022-11-07T16:03:26.024Z,100560.00
2022-11-07T16:06:30.802Z,100553.53
2022-11-07T16:09:33.890Z,100564.62
2022-11-07T16:12:36.578Z,100561.88
2022-11-07T16:15:41.774Z,100561.34
2022-11-07T16:18:46.034Z,100575.41
2022-11-07T16:21:52.877Z,100577.00
2022-11-07T16:24:55.521Z,100580.16
2022-11-07T16:28:00.456Z,100578.66
2022-11-07T16:31:03.694Z,100584.47
2022-11-07T16:34:07.101Z,100575.63
2022-11-07T16:37:11.937Z,100575.94
2022-11-07T16:40:18.310Z,100587.75
2022-11-07T16:43:22.751Z,100583.03
2022-11-07T16:46:29.453Z,100587.84
2022-11-07T16:49:33.763Z,100588.25
2022-11-07T16:52:38.760Z,100587.34
2022-11-07T16:55:53.134Z,100582.44
2022-11-07T16:58:58.101Z,100590.03
2022-11-07T17:02:01.088Z,100589.09
2022-11-07T17:05:04.640Z,100598.88
2022-11-07T17:08:19.150Z,100596.56
2022-11-07T17:11:23.344Z,100599.44
2022-11-07T17:14:26.265Z,100599.00
2022-11-07T17:17:29.200Z,100601.34
2022-11-07T17:20:50.322Z,100603.34
2022-11-07T17:23:56.471Z,100597.22
2022-11-07T17:26:59.409Z,100606.06
2022-11-07T17:30:08.180Z,100603.00
2022-11-07T17:33:11.714Z,100608.00
2022-11-07T17:36:32.082Z,100619.50
2022-11-07T17:39:37.909Z,100612.94
2022-11-07T17:42:41.395Z,100609.22
2022-11-07T17:45:48.451Z,100616.94
2022-11-07T17:49:29.181Z,100617.31
2022-11-07T17:52:36.022Z,100619.78
2022-11-07T17:55:43.297Z,100623.75
2022-11-07T17:58:49.021Z,100617.16
2022-11-07T18:01:52.960Z,100633.25
2022-11-07T18:05:02.745Z,100616.13
2022-11-07T18:08:19.923Z,100624.13
2022-11-07T18:11:49.531Z,100628.84
2022-11-07T18:14:52.478Z,100623.66
2022-11-07T18:17:57.930Z,100623.75
2022-11-07T18:21:00.831Z,100622.16
2022-11-07T18:24:03.970Z,100628.06
2022-11-07T18:27:10.522Z,100623.19
2022-11-07T18:30:14.790Z,100621.09
2022-11-07T18:33:18.492Z,100620.00
2022-11-07T18:36:22.844Z,100632.03
2022-11-07T18:39:27.512Z,100630.91
2022-11-07T18:42:33.125Z,100636.41
2022-11-07T18:45:35.855Z,100633.28
2022-11-07T18:48:39.820Z,100631.03
2022-11-07T18:51:45.603Z,100630.75
2022-11-07T18:54:48.959Z,100627.66
2022-11-07T18:57:51.960Z,100632.22
2022-11-07T19:01:06.606Z,100631.44
2022-11-07T19:04:11.555Z,100632.38
2022-11-07T19:07:14.640Z,100625.97
2022-11-07T19:10:17.969Z,100622.94
2022-11-07T19:13:20.835Z,100627.09
2022-11-07T19:16:23.773Z,100626.34
2022-11-07T19:19:27.114Z,100622.56
2022-11-07T19:22:30.893Z,100623.34
2022-11-07T19:25:34.332Z,100620.69
2022-11-07T19:28:37.682Z,100621.06
2022-11-07T19:31:43.218Z,100624.53
2022-11-07T19:34:46.768Z,100633.91
2022-11-07T19:37:50.173Z,100636.84
2022-11-07T19:40:54.913Z,100638.97
2022-11-07T19:44:01.697Z,100642.03
2022-11-07T19:47:04.607Z,100647.34
2022-11-07T19:50:08.084Z,100634.72
2022-11-07T19:53:10.981Z,100644.09
2022-11-07T19:56:15.960Z,100645.78
2022-11-07T19:59:20.761Z,100647.97
2022-11-07T20:02:33.111Z,100642.72
2022-11-07T20:05:39.208Z,100646.38
2022-11-07T20:08:43.527Z,100654.97
2022-11-07T20:11:49.210Z,100651.06
2022-11-07T20:14:52.835Z,100651.97
2022-11-07T20:17:58.534Z,100649.69
2022-11-07T20:21:09.949Z,100653.50
2022-11-07T20:24:13.026Z,100649.44
2022-11-07T20:27:16.016Z,100656.81
2022-11-07T20:30:22.018Z,100668.53
2022-11-07T20:33:28.209Z,100660.13
2022-11-07T20:36:32.216Z,100665.47
2022-11-07T20:39:35.177Z,100663.75
2022-11-07T20:42:39.894Z,100666.47
2022-11-07T20:45:42.682Z,100659.09
2022-11-07T20:48:48.113Z,100658.09
2022-11-07T20:51:52.360Z,100656.88
2022-11-07T20:54:55.678Z,100660.81
2022-11-07T20:57:59.444Z,100657.56
2022-11-07T21:01:02.669Z,100653.84
2022-11-07T21:04:10.746Z,100652.38
2022-11-07T21:07:18.620Z,100651.03
2022-11-07T21:10:21.641Z,100648.75
2022-11-07T21:13:27.081Z,100651.56
2022-11-07T21:16:34.528Z,100639.19
2022-11-07T21:19:37.765Z,100650.94
2022-11-07T21:22:40.652Z,100650.50
2022-11-07T21:25:47.801Z,100655.75
2022-11-07T21:28:50.545Z,100652.34
2022-11-07T21:31:54.444Z,100654.47
2022-11-07T21:34:57.389Z,100664.06
2022-11-07T21:38:00.227Z,100669.38
2022-11-07T21:41:08.033Z,100665.94
2022-11-07T21:44:12.436Z,100659.19
2022-11-07T21:47:15.220Z,100660.72
2022-11-07T21:50:42.957Z,100660.81
2022-11-07T21:53:42.888Z,100664.91
2022-11-07T21:56:45.696Z,100658.91
2022-11-07T21:59:48.316Z,100665.69
2022-11-07T22:02:51.173Z,100664.75
2022-11-07T22:05:54.356Z,100662.72
2022-11-07T22:08:56.851Z,100665.22
2022-11-07T22:11:59.762Z,100661.53
2022-11-07T22:15:02.279Z,100662.25
2022-11-07T22:18:05.208Z,100663.22
2022-11-07T22:21:10.081Z,100666.22
2022-11-07T22:24:13.085Z,100676.00
2022-11-07T22:27:16.039Z,100671.63
2022-11-07T22:30:19.881Z,100672.78
2022-11-07T22:33:22.549Z,100670.44
2022-11-07T22:36:26.303Z,100670.44
2022-11-07T22:39:28.825Z,100669.19
2022-11-07T22:42:31.932Z,100663.94
2022-11-07T22:45:38.443Z,100662.94
2022-11-07T22:48:41.945Z,100659.56
2022-11-07T22:51:44.484Z,100658.16
2022-11-07T22:54:47.279Z,100657.50
2022-11-07T22:57:52.303Z,100657.66
2022-11-07T23:00:55.325Z,100660.06
2022-11-07T23:03:58.902Z,100664.03
2022-11-07T23:07:01.742Z,100659.78
2022-11-07T23:10:05.478Z,100668.06
2022-11-07T23:13:08.363Z,100667.22
2022-11-07T23:16:22.694Z,100669.19
2022-11-07T23:19:26.547Z,100663.63
2022-11-07T23:22:32.291Z,100664.81
2022-11-07T23:25:35.998Z,100667.00
2022-11-07T23:28:39.393Z,100670.41
2022-11-07T23:31:45.465Z,100674.41
2022-11-07T23:34:50.264Z,100669.91
2022-11-07T23:37:53.323Z,100679.09
2022-11-07T23:40:55.942Z,100664.44
2022-11-07T23:43:59.147Z,100674.19
2022-11-07T23:47:20.274Z,100671.37
2022-11-07T23:50:41.798Z,100676.03
2022-11-07T23:54:04.667Z,100668.88
2022-11-07T23:57:07.571Z,100664.03
